Terminal Aerodrome Forecast
Issued by NWS Albuquerque, NM

Home | Current Version | Previous Version | Text Only | Print | Product List | Glossary On
Versions: 1 2 3 4 5 6 7 8 9 10 11 12 13 14 15 16 17 18 19 20 21 22
000
FTUS45 KABQ 260500
TAFABQ
TAF
KABQ 260539Z 2606/2706 18007KT P6SM BKN090
     FM261200 19008KT P6SM VCSH OVC035
     FM261400 19010KT P6SM -RA OVC030
     FM262000 29011KT P6SM -SHRA OVC035
     FM262300 31015KT P6SM VCSH OVC050=

USA.gov is the U.S. government's official web portal to all federal, state and local government web resources and services.